createdAt,value
2018-11-06T00:02:14.835Z,99.90
2018-11-06T00:04:47.891Z,117.45
2018-11-06T00:07:15.679Z,100.27
2018-11-06T00:09:43.630Z,99.60
2018-11-06T00:12:11.166Z,93.80
2018-11-06T00:14:39.391Z,104.72
2018-11-06T00:17:06.886Z,108.32
2018-11-06T00:19:34.718Z,111.28
2018-11-06T00:22:02.258Z,103.12
2018-11-06T00:24:29.915Z,98.55
2018-11-06T00:26:57.451Z,92.20
2018-11-06T00:29:25.167Z,85.97
2018-11-06T00:31:53.112Z,97.62
2018-11-06T00:34:21.075Z,83.30
2018-11-06T00:36:49.687Z,93.40
2018-11-06T00:39:18.379Z,86.92
2018-11-06T00:41:45.992Z,97.42
2018-11-06T00:44:13.737Z,83.55
2018-11-06T00:46:41.647Z,159.30
2018-11-06T00:49:09.137Z,116.67
2018-11-06T00:51:36.819Z,94.32
2018-11-06T00:54:04.694Z,120.30
2018-11-06T00:56:33.047Z,111.05
2018-11-06T00:59:00.689Z,109.63
2018-11-06T01:01:28.861Z,96.17
2018-11-06T01:04:01.738Z,93.27
2018-11-06T01:06:30.242Z,112.90
2018-11-06T01:08:57.761Z,78.75
2018-11-06T01:11:25.761Z,71.62
2018-11-06T01:13:53.575Z,65.75
2018-11-06T01:16:22.022Z,85.32
2018-11-06T01:18:50.747Z,88.12
2018-11-06T01:21:18.655Z,82.08
2018-11-06T01:23:46.586Z,94.07
2018-11-06T01:26:14.068Z,94.30
2018-11-06T01:28:41.802Z,81.20
2018-11-06T01:31:09.635Z,76.15
2018-11-06T01:33:37.399Z,76.77
2018-11-06T01:36:05.394Z,73.33
2018-11-06T01:38:33.359Z,90.65
2018-11-06T01:41:01.290Z,79.15
2018-11-06T01:43:28.732Z,88.75
2018-11-06T01:45:56.650Z,87.82
2018-11-06T01:48:24.837Z,83.92
2018-11-06T01:50:52.387Z,74.15
2018-11-06T01:53:20.316Z,72.92
2018-11-06T01:55:48.121Z,78.42
2018-11-06T01:58:15.707Z,84.58
2018-11-06T02:00:43.363Z,69.20
2018-11-06T02:03:10.812Z,78.30
2018-11-06T02:05:38.298Z,66.10
2018-11-06T02:08:05.833Z,69.10
2018-11-06T02:10:33.581Z,85.10
2018-11-06T02:13:01.473Z,75.40
2018-11-06T02:15:28.957Z,69.42
2018-11-06T02:17:56.782Z,77.55
2018-11-06T02:20:24.540Z,85.20
2018-11-06T02:22:52.437Z,78.55
2018-11-06T02:25:20.375Z,74.70
2018-11-06T02:27:48.237Z,81.45
2018-11-06T02:30:17.799Z,84.92
2018-11-06T02:32:46.565Z,96.32
2018-11-06T02:35:14.129Z,88.75
2018-11-06T02:37:42.091Z,72.78
2018-11-06T02:40:11.096Z,71.00
2018-11-06T02:42:39.268Z,90.42
2018-11-06T02:45:07.356Z,80.80
2018-11-06T02:47:34.946Z,91.32
2018-11-06T02:50:02.520Z,106.65
2018-11-06T02:52:30.313Z,91.82
2018-11-06T02:54:58.274Z,74.10
2018-11-06T02:57:25.771Z,85.20
2018-11-06T02:59:53.656Z,83.80
2018-11-06T03:02:21.513Z,85.62
2018-11-06T03:04:48.978Z,88.07
2018-11-06T03:07:17.088Z,78.85
2018-11-06T03:09:44.870Z,89.15
2018-11-06T03:12:12.310Z,83.55
2018-11-06T03:14:40.418Z,78.20
2018-11-06T03:17:08.404Z,74.85
2018-11-06T03:19:35.923Z,77.78
2018-11-06T03:22:03.499Z,87.78
2018-11-06T03:24:32.195Z,77.03
2018-11-06T03:27:00.740Z,87.53
2018-11-06T03:29:28.482Z,80.72
2018-11-06T03:31:56.103Z,66.95
2018-11-06T03:34:23.526Z,77.50
2018-11-06T03:36:51.458Z,84.55
2018-11-06T03:39:19.522Z,76.33
2018-11-06T03:41:47.700Z,81.20
2018-11-06T03:44:15.141Z,93.20
2018-11-06T03:46:42.905Z,87.60
2018-11-06T03:49:10.748Z,71.10
2018-11-06T03:51:38.440Z,65.40
2018-11-06T03:54:05.961Z,83.67
2018-11-06T03:56:33.382Z,73.28
2018-11-06T03:59:01.053Z,77.25
2018-11-06T04:01:29.064Z,86.82
2018-11-06T04:03:56.853Z,75.05
2018-11-06T04:06:24.367Z,81.63
2018-11-06T04:08:51.973Z,79.40
2018-11-06T04:11:19.776Z,84.17
2018-11-06T04:13:47.587Z,74.32
2018-11-06T04:16:15.779Z,71.50
2018-11-06T04:18:43.712Z,84.40
2018-11-06T04:21:11.232Z,70.85
2018-11-06T04:23:38.739Z,77.40
2018-11-06T04:26:06.166Z,78.90
2018-11-06T04:28:34.111Z,77.55
2018-11-06T04:31:01.613Z,73.30
2018-11-06T04:33:29.499Z,73.10
2018-11-06T04:35:57.296Z,81.57
2018-11-06T04:38:24.868Z,74.03
2018-11-06T04:40:52.592Z,65.05
2018-11-06T04:43:20.122Z,77.12
2018-11-06T04:45:47.570Z,69.37
2018-11-06T04:48:15.613Z,74.20
2018-11-06T04:50:43.526Z,75.50
2018-11-06T04:53:11.059Z,69.60
2018-11-06T04:55:38.997Z,74.92
2018-11-06T04:58:06.815Z,62.23
2018-11-06T05:00:34.380Z,73.75
2018-11-06T05:03:02.198Z,63.92
2018-11-06T05:05:29.594Z,62.62
2018-11-06T05:07:57.423Z,76.95
2018-11-06T05:10:24.896Z,72.35
2018-11-06T05:12:52.861Z,82.53
2018-11-06T05:15:20.337Z,74.03
2018-11-06T05:17:48.119Z,68.12
2018-11-06T05:20:20.660Z,65.83
2018-11-06T05:22:48.842Z,79.55
2018-11-06T05:25:17.071Z,76.95
2018-11-06T05:27:44.575Z,174.30
2018-11-06T05:30:12.950Z,81.17
2018-11-06T05:32:41.983Z,81.92
2018-11-06T05:35:10.202Z,73.55
2018-11-06T05:37:41.895Z,70.20
2018-11-06T05:40:15.187Z,80.47
2018-11-06T05:42:42.734Z,77.03
2018-11-06T05:45:10.360Z,67.00
2018-11-06T05:47:37.870Z,68.83
2018-11-06T05:50:05.739Z,68.22
2018-11-06T05:52:33.510Z,68.55
2018-11-06T05:55:01.165Z,73.42
2018-11-06T05:57:28.769Z,74.12
2018-11-06T05:59:56.393Z,71.02
2018-11-06T06:02:24.067Z,69.25
2018-11-06T06:04:51.940Z,76.90
2018-11-06T06:07:19.560Z,60.00
2018-11-06T06:09:47.346Z,70.15
2018-11-06T06:12:15.085Z,71.05
2018-11-06T06:14:42.812Z,62.17
2018-11-06T06:17:10.380Z,72.80
2018-11-06T06:19:38.082Z,67.78
2018-11-06T06:22:05.975Z,62.78
2018-11-06T06:24:34.098Z,70.10
2018-11-06T06:27:07.372Z,61.58
2018-11-06T06:29:34.892Z,66.53
2018-11-06T06:32:02.782Z,70.10
2018-11-06T06:34:30.370Z,67.60
2018-11-06T06:36:58.060Z,66.80
2018-11-06T06:39:25.556Z,68.10
2018-11-06T06:41:53.059Z,54.03
2018-11-06T06:44:20.803Z,57.93
2018-11-06T06:46:48.688Z,60.78
2018-11-06T06:49:17.026Z,67.82
2018-11-06T06:51:44.932Z,58.78
2018-11-06T06:54:12.570Z,52.15
2018-11-06T06:56:40.601Z,58.25
2018-11-06T06:59:08.519Z,61.77
2018-11-06T07:01:36.384Z,54.05
2018-11-06T07:04:03.951Z,51.00
2018-11-06T07:06:31.751Z,61.90
2018-11-06T07:08:59.477Z,56.60
2018-11-06T07:11:27.040Z,54.40
2018-11-06T07:13:54.685Z,51.28
2018-11-06T07:16:22.180Z,59.15
2018-11-06T07:18:49.786Z,51.42
2018-11-06T07:21:17.355Z,49.67
2018-11-06T07:23:45.238Z,52.10
2018-11-06T07:26:12.674Z,50.85
2018-11-06T07:28:40.471Z,49.38
2018-11-06T07:31:08.063Z,50.28
2018-11-06T07:33:35.948Z,45.15
2018-11-06T07:36:03.698Z,43.45
2018-11-06T07:38:31.263Z,46.60
2018-11-06T07:40:59.359Z,46.08
2018-11-06T07:43:27.807Z,43.30
2018-11-06T07:45:55.788Z,39.25
2018-11-06T07:48:23.847Z,38.38
2018-11-06T07:50:52.142Z,34.85
2018-11-06T07:53:20.865Z,37.05
2018-11-06T07:55:48.647Z,41.50
2018-11-06T07:58:16.690Z,38.17
2018-11-06T08:00:44.980Z,36.63
2018-11-06T08:03:12.502Z,39.13
2018-11-06T08:05:39.925Z,35.68
2018-11-06T08:08:07.977Z,34.40
2018-11-06T08:10:35.996Z,34.58
2018-11-06T08:13:03.538Z,34.03
2018-11-06T08:15:31.323Z,33.45
2018-11-06T08:17:59.141Z,33.42
2018-11-06T08:20:27.063Z,34.75
2018-11-06T08:22:54.585Z,31.33
2018-11-06T08:25:22.138Z,30.50
2018-11-06T08:27:49.712Z,37.98
2018-11-06T08:30:17.415Z,29.55
2018-11-06T08:32:45.600Z,31.87
2018-11-06T08:35:14.978Z,30.73
2018-11-06T08:37:42.774Z,30.67
2018-11-06T08:40:12.027Z,31.27
2018-11-06T08:42:39.593Z,27.80
2018-11-06T08:45:08.048Z,28.20
2018-11-06T08:47:35.554Z,30.17
2018-11-06T08:50:03.079Z,27.43
2018-11-06T08:52:30.622Z,29.57
2018-11-06T08:54:58.342Z,25.93
2018-11-06T08:57:25.825Z,29.07
2018-11-06T08:59:53.257Z,27.47
2018-11-06T09:02:21.171Z,28.33
2018-11-06T09:04:48.575Z,28.37
2018-11-06T09:07:16.439Z,28.77
2018-11-06T09:09:43.944Z,28.40
2018-11-06T09:12:11.485Z,26.60
2018-11-06T09:14:39.003Z,28.70
2018-11-06T09:17:06.788Z,27.00
2018-11-06T09:19:34.901Z,27.93
2018-11-06T09:22:02.402Z,26.73
2018-11-06T09:24:29.931Z,30.40
2018-11-06T09:26:57.763Z,27.63
2018-11-06T09:29:25.242Z,26.63
2018-11-06T09:31:52.790Z,26.67
2018-11-06T09:34:20.241Z,29.20
2018-11-06T09:36:47.827Z,27.17
2018-11-06T09:39:15.711Z,27.10
2018-11-06T09:41:44.299Z,25.67
2018-11-06T09:44:12.002Z,27.67
2018-11-06T09:46:39.889Z,28.23
2018-11-06T09:49:08.498Z,27.60
2018-11-06T09:51:36.409Z,29.73
2018-11-06T09:54:03.946Z,26.57
2018-11-06T09:56:31.719Z,26.80
2018-11-06T09:58:59.538Z,27.70
2018-11-06T10:01:27.334Z,26.33
2018-11-06T10:03:54.806Z,27.33
2018-11-06T10:06:22.848Z,26.80
2018-11-06T10:08:50.505Z,26.37
2018-11-06T10:11:17.968Z,26.27
2018-11-06T10:13:45.702Z,27.60
2018-11-06T10:16:13.491Z,26.47
2018-11-06T10:18:41.035Z,27.47
2018-11-06T10:21:08.655Z,25.03
2018-11-06T10:23:36.500Z,24.70
2018-11-06T10:26:03.968Z,26.97
2018-11-06T10:28:31.481Z,25.17
2018-11-06T10:30:59.259Z,25.57
2018-11-06T10:33:26.760Z,25.40
2018-11-06T10:35:54.652Z,24.90
2018-11-06T10:38:22.091Z,26.17
2018-11-06T10:40:49.891Z,25.43
2018-11-06T10:43:17.633Z,25.90
2018-11-06T10:45:45.058Z,27.00
2018-11-06T10:48:12.752Z,23.77
2018-11-06T10:50:40.456Z,26.30
2018-11-06T10:53:08.011Z,24.80
2018-11-06T10:55:35.684Z,25.50
2018-11-06T10:58:03.269Z,24.27
2018-11-06T11:00:36.215Z,24.77
2018-11-06T11:03:09.374Z,25.63
2018-11-06T11:05:37.479Z,25.63
2018-11-06T11:08:04.915Z,22.83
2018-11-06T11:10:32.359Z,24.80
2018-11-06T11:13:00.449Z,24.33
2018-11-06T11:15:28.026Z,26.53
2018-11-06T11:17:55.470Z,26.57
2018-11-06T11:20:22.974Z,24.50
2018-11-06T11:22:51.277Z,26.23
2018-11-06T11:25:19.476Z,26.97
2018-11-06T11:27:47.628Z,24.40
2018-11-06T11:30:16.020Z,26.20
2018-11-06T11:32:45.024Z,23.40
2018-11-06T11:35:13.171Z,25.80
2018-11-06T11:37:40.716Z,26.30
2018-11-06T11:40:08.943Z,24.40
2018-11-06T11:42:36.834Z,24.43
2018-11-06T11:45:04.773Z,24.77
2018-11-06T11:47:32.210Z,27.63
2018-11-06T11:49:59.888Z,22.97
2018-11-06T11:52:27.327Z,24.30
2018-11-06T11:54:54.743Z,24.27
2018-11-06T11:57:23.057Z,25.63
2018-11-06T11:59:51.148Z,28.80
2018-11-06T12:02:20.139Z,23.10
2018-11-06T12:04:48.406Z,24.00
2018-11-06T12:07:15.886Z,27.90
2018-11-06T12:09:43.307Z,21.17
2018-11-06T12:12:10.851Z,23.20
2018-11-06T12:14:38.399Z,21.80
2018-11-06T12:17:05.860Z,21.13
2018-11-06T12:19:33.616Z,23.53
2018-11-06T12:22:01.179Z,19.17
2018-11-06T12:24:29.253Z,21.33
2018-11-06T12:26:57.015Z,22.30
2018-11-06T12:29:24.945Z,21.67
2018-11-06T12:31:52.909Z,21.50
2018-11-06T12:34:20.359Z,21.03
2018-11-06T12:36:47.877Z,20.10
2018-11-06T12:39:15.852Z,22.63
2018-11-06T12:41:43.474Z,23.10
2018-11-06T12:44:11.174Z,23.63
2018-11-06T12:46:38.905Z,22.67
2018-11-06T12:49:06.934Z,23.07
2018-11-06T12:51:34.431Z,24.17
2018-11-06T12:54:01.915Z,24.53
2018-11-06T12:56:29.368Z,26.83
2018-11-06T12:58:57.034Z,25.77
2018-11-06T13:01:24.964Z,27.23
2018-11-06T13:03:52.696Z,24.77
2018-11-06T13:06:20.151Z,25.75
2018-11-06T13:08:47.681Z,28.20
2018-11-06T13:11:15.401Z,24.60
2018-11-06T13:13:43.239Z,27.13
2018-11-06T13:16:10.767Z,27.05
2018-11-06T13:18:38.908Z,26.82
2018-11-06T13:21:06.659Z,27.67
2018-11-06T13:23:34.157Z,30.43
2018-11-06T13:26:02.167Z,30.97
2018-11-06T13:28:29.648Z,26.95
2018-11-06T13:30:58.068Z,28.12
2018-11-06T13:33:25.613Z,32.20
2018-11-06T13:35:53.332Z,31.17
2018-11-06T13:38:21.037Z,33.15
2018-11-06T13:40:48.964Z,27.87
2018-11-06T13:43:16.607Z,30.10
2018-11-06T13:45:44.445Z,29.15
2018-11-06T13:48:11.888Z,31.48
2018-11-06T13:50:43.261Z,29.95
2018-11-06T13:53:11.008Z,32.38
2018-11-06T13:55:39.416Z,30.80
2018-11-06T13:58:06.851Z,31.80
2018-11-06T14:00:34.314Z,32.55
2018-11-06T14:03:02.112Z,29.42
2018-11-06T14:05:29.840Z,34.83
2018-11-06T14:07:57.759Z,31.05
2018-11-06T14:10:25.406Z,33.30
2018-11-06T14:12:53.383Z,31.25
2018-11-06T14:15:21.225Z,31.65
2018-11-06T14:17:49.174Z,37.03
2018-11-06T14:20:17.340Z,34.53
2018-11-06T14:22:46.128Z,35.00
2018-11-06T14:25:13.807Z,31.62
2018-11-06T14:27:41.783Z,36.60
2018-11-06T14:30:11.198Z,45.52
2018-11-06T14:32:39.560Z,33.80
2018-11-06T14:35:07.795Z,39.15
2018-11-06T14:37:35.272Z,35.05
2018-11-06T14:40:03.689Z,35.80
2018-11-06T14:42:31.563Z,37.20
2018-11-06T14:44:58.998Z,35.28
2018-11-06T14:47:26.747Z,36.48
2018-11-06T14:49:54.804Z,37.30
2018-11-06T14:52:22.865Z,42.93
2018-11-06T14:54:51.339Z,44.95
2018-11-06T14:57:19.162Z,46.53
2018-11-06T14:59:46.907Z,48.38
2018-11-06T15:02:14.866Z,39.45
2018-11-06T15:04:42.654Z,41.10
2018-11-06T15:07:10.074Z,44.35
2018-11-06T15:09:37.800Z,43.85
2018-11-06T15:12:05.323Z,40.48
2018-11-06T15:14:33.025Z,42.83
2018-11-06T15:17:00.964Z,42.10
2018-11-06T15:19:28.375Z,38.35
2018-11-06T15:21:56.067Z,39.38
2018-11-06T15:24:24.009Z,39.78
2018-11-06T15:26:52.041Z,39.13
2018-11-06T15:29:19.566Z,40.23
2018-11-06T15:31:47.470Z,42.60
2018-11-06T15:34:15.528Z,37.28
2018-11-06T15:36:43.419Z,39.92
2018-11-06T15:39:11.308Z,37.88
2018-11-06T15:41:40.507Z,42.25
2018-11-06T15:44:07.969Z,42.83
2018-11-06T15:46:35.805Z,39.38
2018-11-06T15:49:03.892Z,38.40
2018-11-06T15:51:31.610Z,38.95
2018-11-06T15:53:59.175Z,42.67
2018-11-06T15:56:26.620Z,40.48
2018-11-06T15:58:54.804Z,39.00
2018-11-06T16:01:26.494Z,38.48
2018-11-06T16:03:54.219Z,40.92
2018-11-06T16:06:21.790Z,40.75
2018-11-06T16:08:49.442Z,38.05
2018-11-06T16:11:17.245Z,38.20
2018-11-06T16:13:44.826Z,41.50
2018-11-06T16:16:12.327Z,42.40
2018-11-06T16:18:39.800Z,41.63
2018-11-06T16:21:07.428Z,50.80
2018-11-06T16:23:35.275Z,41.80
2018-11-06T16:26:02.989Z,39.00
2018-11-06T16:28:31.500Z,43.50
2018-11-06T16:30:59.683Z,46.00
2018-11-06T16:33:27.628Z,45.75
2018-11-06T16:35:55.134Z,45.85
2018-11-06T16:38:22.811Z,46.45
2018-11-06T16:40:50.276Z,40.75
2018-11-06T16:43:17.767Z,44.23
2018-11-06T16:45:45.640Z,65.25
2018-11-06T16:48:13.601Z,57.30
2018-11-06T16:50:41.368Z,42.27
2018-11-06T16:53:17.365Z,46.98
2018-11-06T16:55:46.216Z,44.18
2018-11-06T16:58:13.934Z,44.30
2018-11-06T17:00:42.041Z,51.28
2018-11-06T17:03:09.630Z,45.10
2018-11-06T17:05:37.278Z,43.50
2018-11-06T17:08:05.076Z,46.92
2018-11-06T17:10:33.147Z,45.58
2018-11-06T17:13:00.854Z,49.63
2018-11-06T17:15:28.462Z,50.88
2018-11-06T17:17:56.181Z,52.20
2018-11-06T17:20:24.165Z,52.27
2018-11-06T17:22:52.077Z,48.17
2018-11-06T17:25:21.386Z,54.58
2018-11-06T17:27:48.945Z,52.40
2018-11-06T17:30:17.611Z,55.08
2018-11-06T17:32:49.774Z,63.65
2018-11-06T17:35:18.646Z,52.75
2018-11-06T17:37:48.595Z,59.60
2018-11-06T17:40:17.553Z,52.05
2018-11-06T17:42:45.233Z,57.90
2018-11-06T17:45:14.105Z,53.38
2018-11-06T17:47:42.316Z,57.78
2018-11-06T17:50:11.172Z,55.10
2018-11-06T17:52:38.884Z,50.33
2018-11-06T17:55:07.114Z,49.27
2018-11-06T17:57:36.472Z,53.58
2018-11-06T18:00:05.051Z,53.68
2018-11-06T18:02:33.048Z,55.88
2018-11-06T18:05:06.635Z,46.60
2018-11-06T18:07:33.989Z,48.78
2018-11-06T18:10:01.412Z,50.40
2018-11-06T18:12:28.808Z,48.83
2018-11-06T18:14:56.116Z,53.65
2018-11-06T18:17:23.650Z,54.20
2018-11-06T18:19:50.989Z,53.05
2018-11-06T18:22:18.341Z,45.65
2018-11-06T18:24:45.738Z,57.33
2018-11-06T18:27:13.018Z,55.30
2018-11-06T18:29:40.338Z,52.17
2018-11-06T18:32:07.756Z,65.95
2018-11-06T18:34:35.119Z,58.00
2018-11-06T18:37:02.829Z,56.80
2018-11-06T18:39:30.208Z,58.83
2018-11-06T18:41:57.521Z,53.30
2018-11-06T18:44:24.839Z,58.55
2018-11-06T18:46:52.194Z,53.33
2018-11-06T18:49:19.524Z,54.25
2018-11-06T18:51:46.826Z,61.08
2018-11-06T18:54:14.308Z,56.37
2018-11-06T18:56:41.627Z,60.70
2018-11-06T18:59:08.946Z,53.63
2018-11-06T19:01:36.332Z,59.65
2018-11-06T19:04:03.699Z,55.10
2018-11-06T19:06:31.034Z,62.75
2018-11-06T19:08:58.372Z,61.92
2018-11-06T19:11:25.770Z,74.58
2018-11-06T19:13:53.099Z,62.78
2018-11-06T19:16:20.461Z,61.58
2018-11-06T19:18:47.789Z,59.83
2018-11-06T19:21:15.087Z,62.88
2018-11-06T19:23:45.580Z,62.15
2018-11-06T19:26:13.495Z,65.20
2018-11-06T19:28:41.733Z,63.58
2018-11-06T19:31:09.463Z,62.67
2018-11-06T19:33:36.999Z,68.57
2018-11-06T19:36:04.418Z,59.90
2018-11-06T19:38:32.086Z,64.95
2018-11-06T19:40:59.961Z,60.63
2018-11-06T19:43:27.843Z,53.42
2018-11-06T19:45:55.281Z,60.80
2018-11-06T19:48:22.806Z,58.98
2018-11-06T19:50:50.719Z,61.45
2018-11-06T19:53:19.224Z,63.87
2018-11-06T19:55:46.828Z,62.10
2018-11-06T19:58:17.738Z,59.83
2018-11-06T20:00:49.123Z,58.98
2018-11-06T20:03:18.422Z,65.22
2018-11-06T20:05:46.132Z,54.70
2018-11-06T20:08:14.390Z,59.80
2018-11-06T20:10:41.791Z,63.17
2018-11-06T20:13:10.474Z,56.08
2018-11-06T20:15:39.759Z,56.98
2018-11-06T20:18:08.930Z,58.28
2018-11-06T20:20:37.892Z,62.98
2018-11-06T20:23:07.418Z,59.88
2018-11-06T20:25:34.864Z,64.92
2018-11-06T20:28:03.151Z,62.70
2018-11-06T20:30:34.083Z,58.00
2018-11-06T20:33:02.543Z,54.48
2018-11-06T20:35:31.202Z,60.55
2018-11-06T20:37:58.556Z,64.35
2018-11-06T20:40:26.811Z,62.00
2018-11-06T20:42:54.297Z,62.88
2018-11-06T20:45:22.498Z,56.50
2018-11-06T20:47:50.659Z,48.02
2018-11-06T20:50:18.898Z,60.98
2018-11-06T20:52:46.993Z,54.67
2018-11-06T20:55:17.916Z,61.30
2018-11-06T20:57:46.349Z,69.90
2018-11-06T21:00:24.117Z,65.62
2018-11-06T21:02:54.465Z,69.22
2018-11-06T21:05:21.795Z,65.28
2018-11-06T21:07:49.294Z,60.70
2018-11-06T21:10:17.930Z,61.37
2018-11-06T21:12:45.541Z,60.95
2018-11-06T21:15:13.220Z,56.05
2018-11-06T21:17:40.650Z,58.80
2018-11-06T21:20:08.770Z,72.58
2018-11-06T21:22:36.201Z,63.95
2018-11-06T21:25:05.205Z,56.88
2018-11-06T21:27:35.106Z,64.32
2018-11-06T21:30:02.692Z,60.25
2018-11-06T21:32:30.802Z,64.32
2018-11-06T21:35:00.835Z,56.18
2018-11-06T21:37:28.566Z,61.28
2018-11-06T21:39:56.540Z,65.75
2018-11-06T21:42:24.673Z,60.78
2018-11-06T21:44:52.516Z,70.45
2018-11-06T21:47:20.123Z,69.35
2018-11-06T21:49:48.261Z,60.58
2018-11-06T21:52:16.126Z,67.08
2018-11-06T21:54:44.400Z,67.65
2018-11-06T21:57:11.721Z,71.22
2018-11-06T21:59:39.230Z,71.37
2018-11-06T22:02:06.854Z,66.65
2018-11-06T22:04:34.955Z,71.60
2018-11-06T22:07:02.261Z,67.08
2018-11-06T22:09:29.609Z,60.88
2018-11-06T22:11:56.959Z,65.72
2018-11-06T22:14:24.285Z,62.65
2018-11-06T22:16:51.606Z,61.65
2018-11-06T22:19:18.930Z,59.20
2018-11-06T22:21:46.326Z,69.17
2018-11-06T22:24:13.622Z,64.87
2018-11-06T22:26:40.994Z,73.62
2018-11-06T22:29:08.308Z,67.78
2018-11-06T22:31:35.685Z,68.20
2018-11-06T22:34:03.019Z,80.62
2018-11-06T22:36:30.311Z,70.78
2018-11-06T22:38:57.622Z,77.05
2018-11-06T22:41:24.962Z,78.92
2018-11-06T22:43:52.338Z,68.60
2018-11-06T22:46:19.621Z,72.87
2018-11-06T22:48:46.928Z,77.37
2018-11-06T22:51:14.245Z,74.12
2018-11-06T22:53:41.632Z,66.75
2018-11-06T22:56:08.942Z,68.17
2018-11-06T22:58:36.251Z,75.35
2018-11-06T23:01:09.002Z,79.82
2018-11-06T23:03:36.325Z,62.27
2018-11-06T23:06:03.797Z,66.53
2018-11-06T23:08:31.066Z,82.55
2018-11-06T23:10:58.403Z,74.20
2018-11-06T23:13:25.735Z,81.10
2018-11-06T23:15:53.121Z,82.75
2018-11-06T23:18:20.478Z,78.42
2018-11-06T23:20:47.789Z,72.00
2018-11-06T23:23:15.104Z,76.10
2018-11-06T23:25:42.565Z,79.87
2018-11-06T23:28:09.896Z,87.47
2018-11-06T23:30:37.222Z,81.28
2018-11-06T23:33:04.989Z,72.90
2018-11-06T23:35:32.387Z,75.15
2018-11-06T23:37:59.678Z,90.72
2018-11-06T23:40:26.996Z,88.10
2018-11-06T23:42:54.342Z,95.85
2018-11-06T23:45:21.686Z,79.03
2018-11-06T23:47:49.012Z,79.10
2018-11-06T23:50:16.334Z,81.97
2018-11-06T23:52:43.658Z,75.78
2018-11-06T23:55:11.314Z,77.62
2018-11-06T23:57:38.759Z,74.10
